Time;durP1;ratioP1;P1;durP2;ratioP2;P2;SDS_P1;SDS_P2;PMS_P1;PMS_P2;Temp;Humidity;BMP_temperature;BMP_pressure;BME280_temperature;BME280_humidity;BME280_pressure;Samples;Min_cycle;Max_cycle;Signal;HPM_P1;HPM_P2
2021/08/12 00:02:22;;;;;;;29.67;24.42;;;;;;;;;;5142599;27;20155;-77
2021/08/12 00:04:49;;;;;;;31.95;24.70;;;;;;;;;;5143701;27;20035;-76
2021/08/12 00:07:15;;;;;;;27.08;23.95;;;;;;;;;;5141153;27;20063;-77
2021/08/12 00:09:41;;;;;;;30.80;24.85;;;;;;;;;;5136816;27;20036;-76
2021/08/12 00:12:08;;;;;;;31.75;24.25;;;;;;;;;;5147971;27;20509;-77
2021/08/12 00:14:34;;;;;;;27.33;22.67;;;;;;;;;;5145540;27;20489;-78
2021/08/12 00:17:00;;;;;;;33.10;26.30;;;;;;;;;;5150508;27;20054;-77
2021/08/12 00:19:27;;;;;;;33.65;26.67;;;;;;;;;;5146698;27;20047;-74
2021/08/12 00:21:53;;;;;;;30.27;23.92;;;;;;;;;;5144614;27;20046;-77
2021/08/12 00:24:21;;;;;;;30.33;23.83;;;;;;;;;;5145824;27;20047;-77
2021/08/12 00:26:50;;;;;;;27.83;23.67;;;;;;;;;;5146382;27;20345;-76
2021/08/12 00:29:17;;;;;;;31.40;24.15;;;;;;;;;;5146316;27;20030;-74
2021/08/12 00:31:43;;;;;;;26.83;21.55;;;;;;;;;;5141832;27;20064;-77
2021/08/12 00:34:09;;;;;;;28.00;23.65;;;;;;;;;;5143377;27;20043;-77
2021/08/12 00:36:35;;;;;;;27.73;23.13;;;;;;;;;;5143008;27;20073;-77
2021/08/12 00:39:01;;;;;;;33.22;24.75;;;;;;;;;;5140330;27;20068;-78
2021/08/12 00:41:35;;;;;;;28.83;22.92;;;;;;;;;;5141363;27;20400;-77
2021/08/12 00:44:01;;;;;;;22.75;19.60;;;;;;;;;;5136851;27;20500;-78
2021/08/12 00:46:27;;;;;;;28.75;23.88;;;;;;;;;;5140794;27;20114;-77
2021/08/12 00:48:53;;;;;;;28.20;23.10;;;;;;;;;;5141497;27;20068;-77
2021/08/12 00:51:19;;;;;;;26.38;22.05;;;;;;;;;;5143581;27;20039;-77
2021/08/12 00:53:46;;;;;;;30.83;23.92;;;;;;;;;;5148108;27;20094;-77
2021/08/12 00:56:12;;;;;;;31.00;23.63;;;;;;;;;;5139511;27;20036;-78
2021/08/12 00:58:38;;;;;;;30.65;22.75;;;;;;;;;;5136676;27;20046;-78
2021/08/12 01:01:04;;;;;;;29.83;24.23;;;;;;;;;;5146702;27;20068;-79
2021/08/12 01:03:31;;;;;;;30.10;24.15;;;;;;;;;;5146100;27;20035;-78
2021/08/12 01:05:58;;;;;;;32.83;25.27;;;;;;;;;;5145282;27;20528;-77
2021/08/12 01:08:34;;;;;;;39.22;26.00;;;;;;;;;;5149549;27;20126;-77
2021/08/12 01:11:07;;;;;;;35.80;25.80;;;;;;;;;;5145303;27;20050;-77
2021/08/12 01:13:50;;;;;;;34.00;25.98;;;;;;;;;;5136926;27;20114;-77
2021/08/12 01:16:17;;;;;;;30.42;24.08;;;;;;;;;;5142279;27;20133;-77
2021/08/12 01:18:55;;;;;;;28.60;24.25;;;;;;;;;;5141634;27;20481;-77
2021/08/12 01:21:21;;;;;;;30.13;25.27;;;;;;;;;;5141111;27;20042;-77
2021/08/12 01:23:47;;;;;;;32.78;23.83;;;;;;;;;;5146061;27;20115;-76
2021/08/12 01:26:17;;;;;;;29.65;23.85;;;;;;;;;;5143452;27;20046;-76
2021/08/12 01:28:44;;;;;;;37.10;25.40;;;;;;;;;;5136968;27;20099;-77
2021/08/12 01:31:23;;;;;;;29.80;22.58;;;;;;;;;;5141076;27;20038;-76
2021/08/12 01:34:08;;;;;;;32.10;23.67;;;;;;;;;;5140921;27;20043;-77
2021/08/12 01:36:35;;;;;;;32.03;24.85;;;;;;;;;;5144137;27;20393;-75
2021/08/12 01:39:02;;;;;;;33.45;24.92;;;;;;;;;;5140452;27;20027;-77
2021/08/12 01:41:29;;;;;;;27.70;24.40;;;;;;;;;;5120657;27;20039;-77
2021/08/12 01:43:56;;;;;;;42.05;27.35;;;;;;;;;;5134984;27;20058;-77
2021/08/12 01:46:24;;;;;;;41.70;29.25;;;;;;;;;;5139622;27;20035;-77
2021/08/12 01:48:51;;;;;;;36.15;27.25;;;;;;;;;;5142806;27;20039;-77
2021/08/12 01:51:17;;;;;;;43.00;28.70;;;;;;;;;;5139344;27;20061;-78
2021/08/12 01:53:43;;;;;;;37.58;29.13;;;;;;;;;;5123085;27;20043;-77
2021/08/12 01:56:10;;;;;;;54.88;35.03;;;;;;;;;;5143065;27;20042;-77
2021/08/12 01:58:36;;;;;;;79.07;42.10;;;;;;;;;;5144280;27;20041;-74
2021/08/12 02:01:06;;;;;;;111.38;41.58;;;;;;;;;;5145380;27;20115;-78
2021/08/12 02:03:33;;;;;;;73.40;42.17;;;;;;;;;;5135999;27;20058;-77
2021/08/12 02:05:59;;;;;;;74.20;41.38;;;;;;;;;;5135009;27;20042;-77
2021/08/12 02:08:26;;;;;;;56.75;37.28;;;;;;;;;;5140656;27;20478;-77
2021/08/12 02:10:52;;;;;;;49.53;33.83;;;;;;;;;;5135112;27;20133;-77
2021/08/12 02:13:18;;;;;;;44.10;34.03;;;;;;;;;;5141497;27;20042;-77
2021/08/12 02:15:45;;;;;;;37.00;30.50;;;;;;;;;;5117742;27;20053;-76
2021/08/12 02:18:11;;;;;;;38.15;29.25;;;;;;;;;;5140646;27;20102;-76
2021/08/12 02:20:40;;;;;;;35.28;29.02;;;;;;;;;;5137484;27;20035;-76
2021/08/12 02:23:09;;;;;;;37.47;30.05;;;;;;;;;;5144182;27;20042;-77
2021/08/12 02:25:52;;;;;;;38.50;31.60;;;;;;;;;;5138563;27;20036;-77
2021/08/12 02:28:18;;;;;;;43.65;32.97;;;;;;;;;;5142532;27;20621;-77
2021/08/12 02:30:46;;;;;;;46.38;33.70;;;;;;;;;;5137757;27;20367;-76
2021/08/12 02:33:20;;;;;;;45.78;33.90;;;;;;;;;;5138064;27;20041;-75
2021/08/12 02:35:46;;;;;;;49.40;33.55;;;;;;;;;;5142007;27;20042;-77
2021/08/12 02:38:14;;;;;;;39.10;30.20;;;;;;;;;;5141763;27;20034;-77
2021/08/12 02:40:41;;;;;;;39.88;30.85;;;;;;;;;;5139684;27;20043;-74
2021/08/12 02:43:07;;;;;;;41.75;32.30;;;;;;;;;;5146143;27;20053;-75
2021/08/12 02:45:34;;;;;;;45.55;33.63;;;;;;;;;;5141773;27;20035;-76
2021/08/12 02:48:01;;;;;;;39.63;30.38;;;;;;;;;;5139975;27;20257;-76
2021/08/12 02:50:28;;;;;;;38.25;30.80;;;;;;;;;;5136886;27;20102;-77
2021/08/12 02:52:54;;;;;;;35.63;28.65;;;;;;;;;;5138236;27;20050;-77
2021/08/12 02:55:21;;;;;;;37.67;28.98;;;;;;;;;;5120259;27;20047;-78
2021/08/12 02:57:48;;;;;;;47.97;33.60;;;;;;;;;;5140932;27;20042;-78
2021/08/12 03:00:14;;;;;;;52.17;34.42;;;;;;;;;;5141196;27;20038;-78
2021/08/12 03:02:46;;;;;;;41.63;31.23;;;;;;;;;;5117645;27;20115;-77
2021/08/12 03:05:14;;;;;;;50.30;35.25;;;;;;;;;;5139130;27;20034;-78
2021/08/12 03:07:43;;;;;;;47.08;34.25;;;;;;;;;;5137209;27;20043;-76
2021/08/12 03:10:09;;;;;;;44.17;32.50;;;;;;;;;;5125861;27;20050;-81
2021/08/12 03:12:36;;;;;;;47.28;33.13;;;;;;;;;;5139943;27;20047;-77
2021/08/12 03:15:02;;;;;;;43.25;32.92;;;;;;;;;;5116610;27;20051;-77
2021/08/12 03:17:29;;;;;;;47.65;35.25;;;;;;;;;;5121412;27;20520;-75
2021/08/12 03:19:56;;;;;;;45.65;33.30;;;;;;;;;;5134581;27;20049;-74
2021/08/12 03:22:24;;;;;;;53.15;35.40;;;;;;;;;;5139170;27;20500;-76
2021/08/12 03:24:53;;;;;;;44.25;31.75;;;;;;;;;;5144568;27;20042;-77
2021/08/12 03:27:19;;;;;;;42.55;30.98;;;;;;;;;;5145059;27;20046;-77
2021/08/12 03:29:46;;;;;;;44.38;32.70;;;;;;;;;;5119989;27;20239;-75
2021/08/12 03:32:12;;;;;;;53.17;34.50;;;;;;;;;;5141700;27;20095;-77
2021/08/12 03:34:39;;;;;;;43.92;31.65;;;;;;;;;;5138795;27;20069;-77
2021/08/12 03:37:05;;;;;;;45.80;32.58;;;;;;;;;;5138968;27;20042;-77
2021/08/12 03:39:31;;;;;;;44.85;30.75;;;;;;;;;;5143314;27;20034;-78
2021/08/12 03:41:59;;;;;;;47.65;34.40;;;;;;;;;;5138658;27;20118;-78
2021/08/12 03:44:25;;;;;;;54.65;35.33;;;;;;;;;;5139301;27;20072;-78
2021/08/12 03:46:51;;;;;;;59.88;38.85;;;;;;;;;;5134759;27;20119;-78
2021/08/12 03:49:18;;;;;;;59.08;37.55;;;;;;;;;;5142470;27;20035;-78
2021/08/12 03:51:44;;;;;;;46.40;32.75;;;;;;;;;;5140447;27;20095;-77
2021/08/12 03:54:10;;;;;;;48.38;33.28;;;;;;;;;;5136204;27;20122;-78
2021/08/12 03:56:37;;;;;;;51.78;35.03;;;;;;;;;;5138677;27;20057;-78
2021/08/12 03:59:05;;;;;;;50.58;34.38;;;;;;;;;;5139784;27;20051;-75
2021/08/12 04:01:31;;;;;;;47.97;35.83;;;;;;;;;;5135134;27;20542;-77
2021/08/12 04:03:58;;;;;;;46.28;34.50;;;;;;;;;;5137573;27;20157;-77
2021/08/12 04:06:24;;;;;;;46.40;34.90;;;;;;;;;;5133786;27;20114;-77
2021/08/12 04:08:51;;;;;;;49.20;34.20;;;;;;;;;;5118770;27;20031;-78
2021/08/12 04:11:17;;;;;;;47.88;35.22;;;;;;;;;;5137476;27;20039;-77
2021/08/12 04:13:43;;;;;;;50.05;35.88;;;;;;;;;;5124637;27;20035;-77
2021/08/12 04:16:09;;;;;;;45.03;33.70;;;;;;;;;;5132578;27;20516;-76
2021/08/12 04:18:36;;;;;;;39.28;32.10;;;;;;;;;;5141285;27;20034;-77
2021/08/12 04:21:02;;;;;;;43.17;33.50;;;;;;;;;;5141467;27;20050;-77
2021/08/12 04:23:28;;;;;;;35.60;30.58;;;;;;;;;;5137061;27;20115;-76
2021/08/12 04:25:54;;;;;;;38.75;32.17;;;;;;;;;;5140772;27;20043;-77
2021/08/12 04:28:21;;;;;;;37.50;31.55;;;;;;;;;;5128385;27;20039;-77
2021/08/12 04:30:49;;;;;;;44.15;33.58;;;;;;;;;;5139683;27;20129;-77
2021/08/12 04:33:16;;;;;;;41.13;32.50;;;;;;;;;;5137522;27;20031;-77
2021/08/12 04:35:42;;;;;;;42.97;32.35;;;;;;;;;;5137813;27;20458;-76
2021/08/12 04:38:09;;;;;;;42.30;32.17;;;;;;;;;;5137436;27;20046;-76
2021/08/12 04:40:35;;;;;;;44.97;32.45;;;;;;;;;;5120495;27;20058;-78
2021/08/12 04:43:01;;;;;;;44.08;33.45;;;;;;;;;;5134069;27;20039;-78
2021/08/12 04:45:27;;;;;;;43.88;32.72;;;;;;;;;;5121527;27;20481;-78
2021/08/12 04:48:01;;;;;;;42.05;32.55;;;;;;;;;;5136264;27;20168;-78
2021/08/12 04:50:27;;;;;;;36.25;29.38;;;;;;;;;;5143910;27;20063;-78
2021/08/12 04:52:54;;;;;;;41.60;31.58;;;;;;;;;;5121673;27;20071;-78
2021/08/12 04:55:20;;;;;;;37.53;29.67;;;;;;;;;;5143221;27;20035;-79
2021/08/12 04:57:46;;;;;;;33.58;28.33;;;;;;;;;;5140174;27;20263;-80
2021/08/12 05:00:12;;;;;;;41.35;30.77;;;;;;;;;;5146021;27;20031;-77
2021/08/12 05:02:39;;;;;;;45.13;31.00;;;;;;;;;;5141976;27;20046;-77
2021/08/12 05:05:05;;;;;;;37.88;29.77;;;;;;;;;;5128379;27;20121;-76
2021/08/12 05:07:31;;;;;;;37.28;29.77;;;;;;;;;;5144235;27;20458;-77
2021/08/12 05:09:58;;;;;;;39.15;29.60;;;;;;;;;;5146737;27;20501;-76
2021/08/12 05:12:25;;;;;;;36.35;29.92;;;;;;;;;;5144107;27;20522;-77
2021/08/12 05:14:51;;;;;;;34.72;27.25;;;;;;;;;;5121180;27;20872;-79
2021/08/12 05:17:17;;;;;;;37.47;29.13;;;;;;;;;;5137600;27;20043;-78
2021/08/12 05:19:44;;;;;;;35.72;27.73;;;;;;;;;;5139078;27;20375;-76
2021/08/12 05:22:10;;;;;;;35.80;27.80;;;;;;;;;;5141775;27;20035;-77
2021/08/12 05:24:37;;;;;;;39.78;28.00;;;;;;;;;;5140811;27;20122;-78
2021/08/12 05:27:03;;;;;;;30.55;25.42;;;;;;;;;;5126193;27;20043;-76
2021/08/12 05:29:30;;;;;;;31.38;24.83;;;;;;;;;;5137246;27;20068;-78
2021/08/12 05:31:58;;;;;;;27.10;23.63;;;;;;;;;;5135278;27;20049;-78
2021/08/12 05:34:25;;;;;;;25.77;23.08;;;;;;;;;;5143870;27;20035;-78
2021/08/12 05:36:51;;;;;;;27.00;23.27;;;;;;;;;;5123686;27;20039;-78
2021/08/12 05:39:17;;;;;;;27.98;23.75;;;;;;;;;;5135422;27;20142;-78
2021/08/12 05:41:44;;;;;;;27.75;23.20;;;;;;;;;;5139582;27;20035;-78
2021/08/12 05:44:10;;;;;;;32.45;24.10;;;;;;;;;;5126528;27;20193;-78
2021/08/12 05:46:36;;;;;;;30.45;23.65;;;;;;;;;;5138999;27;20039;-79
2021/08/12 05:49:03;;;;;;;29.42;22.83;;;;;;;;;;5146712;27;20047;-77
2021/08/12 05:51:31;;;;;;;25.80;20.60;;;;;;;;;;5135501;27;20050;-78
2021/08/12 05:53:57;;;;;;;25.35;21.45;;;;;;;;;;5125692;27;20095;-78
2021/08/12 05:56:23;;;;;;;24.75;20.75;;;;;;;;;;5129464;27;20124;-79
2021/08/12 05:58:49;;;;;;;27.10;21.40;;;;;;;;;;5146463;27;20501;-77
2021/08/12 06:01:15;;;;;;;23.55;21.02;;;;;;;;;;5150374;27;20046;-79
2021/08/12 06:03:46;;;;;;;26.65;22.88;;;;;;;;;;5149900;27;20091;-79
2021/08/12 06:06:12;;;;;;;28.27;22.90;;;;;;;;;;5139620;27;20114;-78
2021/08/12 06:08:39;;;;;;;25.55;21.35;;;;;;;;;;5150648;27;20179;-78
2021/08/12 06:11:06;;;;;;;24.52;21.23;;;;;;;;;;5132760;27;20040;-78
2021/08/12 06:13:32;;;;;;;26.33;20.90;;;;;;;;;;5142412;27;20038;-80
2021/08/12 06:15:59;;;;;;;25.80;21.65;;;;;;;;;;5142783;27;20043;-79
2021/08/12 06:18:25;;;;;;;25.20;21.05;;;;;;;;;;5142865;27;20050;-79
2021/08/12 06:20:52;;;;;;;25.75;20.15;;;;;;;;;;5143720;27;20066;-79
2021/08/12 06:23:18;;;;;;;23.38;20.60;;;;;;;;;;5134787;27;20061;-78
2021/08/12 06:25:44;;;;;;;28.77;20.67;;;;;;;;;;5119246;27;20047;-78
2021/08/12 06:28:11;;;;;;;27.23;21.40;;;;;;;;;;5143028;27;20042;-77
2021/08/12 06:30:37;;;;;;;28.23;20.98;;;;;;;;;;5152953;27;20068;-78
2021/08/12 06:33:04;;;;;;;24.40;21.45;;;;;;;;;;5147027;27;20042;-74
2021/08/12 06:35:34;;;;;;;;;;;;;;;;;;5153105;27;20121;-78
2021/08/12 06:38:01;;;;;;;28.15;22.00;;;;;;;;;;5140081;27;19945;-79
2021/08/12 06:40:27;;;;;;;26.08;22.88;;;;;;;;;;5138667;27;20091;-77
2021/08/12 06:42:53;;;;;;;31.10;23.75;;;;;;;;;;5141609;27;20043;-75
2021/08/12 06:45:20;;;;;;;25.02;21.67;;;;;;;;;;5140999;27;20047;-78
2021/08/12 06:47:47;;;;;;;27.83;21.85;;;;;;;;;;5135879;27;20092;-77
2021/08/12 06:50:14;;;;;;;24.88;22.17;;;;;;;;;;5135702;27;20090;-77
2021/08/12 06:52:40;;;;;;;25.13;21.95;;;;;;;;;;5130244;27;20038;-79
2021/08/12 06:55:07;;;;;;;27.00;20.15;;;;;;;;;;5136166;27;20073;-77
2021/08/12 06:57:33;;;;;;;;;;;;;;;;;;5141004;27;20067;-78
2021/08/12 06:59:59;;;;;;;;;;;;;;;;;;5151721;27;20369;-78
2021/08/12 07:02:25;;;;;;;;;;;;;;;;;;5143876;27;19919;-78
2021/08/12 07:04:51;;;;;;;;;;;;;;;;;;5136984;27;19920;-78
2021/08/12 07:07:17;;;;;;;;;;;;;;;;;;5145533;27;19919;-78
2021/08/12 07:09:44;;;;;;;;;;;;;;;;;;5146477;27;20312;-81
2021/08/12 07:12:11;;;;;;;;;;;;;;;;;;5138597;27;19919;-80
2021/08/12 07:14:37;;;;;;;;;;;;;;;;;;5138490;27;19929;-80
2021/08/12 07:17:04;;;;;;;;;;;;;;;;;;5138206;27;19972;-80
2021/08/12 07:19:31;;;;;;;;;;;;;;;;;;5138869;27;20010;-81
2021/08/12 07:21:57;;;;;;;;;;;;;;;;;;5135074;27;19977;-81
2021/08/12 07:24:25;;;;;;;;;;;;;;;;;;5133821;27;19964;-81
2021/08/12 07:26:51;;;;;;;;;;;;;;;;;;5133261;27;19923;-82
2021/08/12 07:29:17;;;;;;;;;;;;;;;;;;5132236;27;20034;-81
2021/08/12 07:31:43;;;;;;;;;;;;;;;;;;5141853;27;19919;-84
2021/08/12 07:34:09;;;;;;;;;;;;;;;;;;5134066;27;19920;-76
2021/08/12 07:36:36;;;;;;;;;;;;;;;;;;5141890;27;19970;-78
2021/08/12 07:39:02;;;;;;;;;;;;;;;;;;5138491;27;19919;-76
2021/08/12 07:41:28;;;;;;;;;;;;;;;;;;5149065;27;19950;-82
2021/08/12 07:43:54;;;;;;;;;;;;;;;;;;5140328;27;20393;-81
2021/08/12 07:46:20;;;;;;;;;;;;;;;;;;5139244;27;20376;-82
2021/08/12 07:48:46;;;;;;;;;;;;;;;;;;5139258;27;20381;-80
2021/08/12 07:51:12;;;;;;;;;;;;;;;;;;5143398;27;19915;-77
2021/08/12 07:53:38;;;;;;;;;;;;;;;;;;5153308;27;19929;-77
2021/08/12 07:56:04;;;;;;;;;;;;;;;;;;5132893;27;19926;-82
2021/08/12 07:58:30;;;;;;;;;;;;;;;;;;5146953;27;19926;-83
2021/08/12 08:00:56;;;;;;;;;;;;;;;;;;5136886;27;19972;-83
2021/08/12 08:03:22;;;;;;;;;;;;;;;;;;5143408;27;19993;-80
2021/08/12 08:05:48;;;;;;;;;;;;;;;;;;5126816;27;20374;-80
2021/08/12 08:08:14;;;;;;;;;;;;;;;;;;5134856;27;19916;-81
2021/08/12 08:10:40;;;;;;;;;;;;;;;;;;5137847;27;20002;-81
2021/08/12 08:13:07;;;;;;;;;;;;;;;;;;5132795;27;19981;-82
2021/08/12 08:15:33;;;;;;;;;;;;;;;;;;5142379;27;20285;-81
2021/08/12 08:17:59;;;;;;;;;;;;;;;;;;5138570;27;19954;-82
2021/08/12 08:20:25;;;;;;;;;;;;;;;;;;5139956;27;19931;-81
2021/08/12 08:22:51;;;;;;;;;;;;;;;;;;5136034;27;20004;-81
2021/08/12 08:25:17;;;;;;;;;;;;;;;;;;5141261;27;20014;-80
2021/08/12 08:27:43;;;;;;;;;;;;;;;;;;5139299;27;20013;-81
2021/08/12 08:30:09;;;;;;;;;;;;;;;;;;5141678;27;19998;-80
2021/08/12 08:32:35;;;;;;;14.88;12.20;;;;;;;;;;5150608;27;19927;-81
2021/08/12 08:35:03;;;;;;;14.65;12.63;;;;;;;;;;5145828;27;20354;-82
2021/08/12 08:37:29;;;;;;;15.40;12.75;;;;;;;;;;5142171;27;20458;-81
2021/08/12 08:39:55;;;;;;;12.95;10.98;;;;;;;;;;5145904;27;20278;-82
2021/08/12 08:42:21;;;;;;;13.55;11.25;;;;;;;;;;5136669;27;20043;-81
2021/08/12 08:44:49;;;;;;;12.10;10.90;;;;;;;;;;5142146;27;20054;-82
2021/08/12 08:47:18;;;;;;;18.02;11.18;;;;;;;;;;5146619;27;20035;-81
2021/08/12 08:49:46;;;;;;;13.93;10.05;;;;;;;;;;5148197;27;20078;-81
2021/08/12 08:52:13;;;;;;;13.75;10.88;;;;;;;;;;5135669;27;20043;-81
2021/08/12 08:54:40;;;;;;;11.98;9.82;;;;;;;;;;5137402;27;20122;-81
2021/08/12 08:57:07;;;;;;;12.05;10.63;;;;;;;;;;5144400;27;20061;-82
2021/08/12 08:59:34;;;;;;;12.02;10.52;;;;;;;;;;5140160;27;20137;-81
2021/08/12 09:02:04;;;;;;;13.18;9.88;;;;;;;;;;5146907;27;20083;-81
2021/08/12 09:04:30;;;;;;;12.82;10.30;;;;;;;;;;5137548;27;20043;-81
2021/08/12 09:06:56;;;;;;;13.25;10.00;;;;;;;;;;5144977;27;20100;-82
2021/08/12 09:09:22;;;;;;;13.32;10.55;;;;;;;;;;5140556;27;20153;-81
2021/08/12 09:11:48;;;;;;;13.80;10.60;;;;;;;;;;5137089;27;20091;-82
2021/08/12 09:14:35;;;;;;;15.60;10.30;;;;;;;;;;5152994;27;20043;-81
2021/08/12 09:17:21;;;;;;;12.45;8.88;;;;;;;;;;5144538;27;20047;-83
2021/08/12 09:20:00;;;;;;;10.75;9.02;;;;;;;;;;5136481;27;20035;-83
2021/08/12 09:22:30;;;;;;;15.85;9.20;;;;;;;;;;5136162;27;20102;-82
2021/08/12 09:24:56;;;;;;;11.80;8.60;;;;;;;;;;5141371;27;20182;-80
2021/08/12 09:27:25;;;;;;;13.13;8.05;;;;;;;;;;5135424;27;20237;-81
2021/08/12 09:30:08;;;;;;;10.45;7.28;;;;;;;;;;5136879;27;20050;-82
2021/08/12 09:32:44;;;;;;;12.43;7.83;;;;;;;;;;5135998;27;20064;-82
2021/08/12 09:35:10;;;;;;;14.82;7.65;;;;;;;;;;5136589;27;20120;-82
2021/08/12 09:37:36;;;;;;;11.63;8.00;;;;;;;;;;5135223;27;20046;-81
2021/08/12 09:40:03;;;;;;;12.05;7.50;;;;;;;;;;5138556;27;20035;-82
2021/08/12 09:42:30;;;;;;;13.43;7.65;;;;;;;;;;5135201;27;20043;-82
2021/08/12 09:44:56;;;;;;;10.10;7.93;;;;;;;;;;5139466;27;20038;-82
2021/08/12 09:47:25;;;;;;;11.40;8.40;;;;;;;;;;5146499;27;20065;-81
2021/08/12 09:49:52;;;;;;;14.32;8.55;;;;;;;;;;5118010;27;20035;-81
2021/08/12 09:52:21;;;;;;;12.48;8.70;;;;;;;;;;5135211;27;20401;-78
2021/08/12 09:54:48;;;;;;;11.60;8.40;;;;;;;;;;5141431;27;20594;-81
2021/08/12 09:57:17;;;;;;;10.73;7.60;;;;;;;;;;5135870;27;20047;-80
2021/08/12 09:59:51;;;;;;;10.20;7.28;;;;;;;;;;5136787;27;20099;-79
2021/08/12 10:02:17;;;;;;;10.20;7.78;;;;;;;;;;5141373;27;20035;-78
2021/08/12 10:04:43;;;;;;;10.40;8.05;;;;;;;;;;5140302;27;20038;-81
2021/08/12 10:07:33;;;;;;;14.43;8.32;;;;;;;;;;5141998;27;20043;-80
2021/08/12 10:10:08;;;;;;;14.68;8.98;;;;;;;;;;5115883;27;20078;-80
2021/08/12 10:12:34;;;;;;;12.05;7.72;;;;;;;;;;5134323;27;20039;-80
2021/08/12 10:15:01;;;;;;;12.20;9.63;;;;;;;;;;5147075;27;20510;-81
2021/08/12 10:17:28;;;;;;;12.73;9.32;;;;;;;;;;5138880;27;20054;-80
2021/08/12 10:19:54;;;;;;;9.90;8.30;;;;;;;;;;5143218;27;20071;-81
2021/08/12 10:22:20;;;;;;;13.32;8.77;;;;;;;;;;5154721;27;20038;-81
2021/08/12 10:24:47;;;;;;;12.10;8.95;;;;;;;;;;5144606;27;20059;-80
2021/08/12 10:27:14;;;;;;;14.40;10.25;;;;;;;;;;5134586;27;20039;-77
2021/08/12 10:29:43;;;;;;;14.85;10.52;;;;;;;;;;5137914;27;20043;-74
2021/08/12 10:34:32;;;;;;;13.35;11.07;;;;;;;;;;5128878;27;20162;-78
2021/08/12 10:36:59;;;;;;;12.65;9.43;;;;;;;;;;5109693;28;20044;-83
2021/08/12 10:39:25;;;;;;;11.85;8.60;;;;;;;;;;5103324;28;20130;-79
2021/08/12 10:41:52;;;;;;;10.90;7.65;;;;;;;;;;5108398;28;20040;-86
2021/08/12 10:44:19;;;;;;;9.75;7.25;;;;;;;;;;5110107;28;20460;-81
2021/08/12 10:46:45;;;;;;;9.77;7.43;;;;;;;;;;5105029;28;20134;-82
2021/08/12 10:49:30;;;;;;;9.80;6.63;;;;;;;;;;5107722;28;20035;-83
2021/08/12 10:52:06;;;;;;;9.10;6.55;;;;;;;;;;5103468;28;20050;-83
2021/08/12 10:54:34;;;;;;;9.75;6.78;;;;;;;;;;5104608;28;20048;-77
2021/08/12 10:57:12;;;;;;;8.65;6.88;;;;;;;;;;5112906;28;20035;-83
2021/08/12 10:59:39;;;;;;;10.00;6.97;;;;;;;;;;5103536;28;20051;-81
2021/08/12 11:02:24;;;;;;;7.78;6.53;;;;;;;;;;5106219;28;20528;-81
2021/08/12 11:04:53;;;;;;;10.45;5.47;;;;;;;;;;5103264;28;20110;-81
2021/08/12 11:07:38;;;;;;;7.88;4.15;;;;;;;;;;5099155;28;20486;-85
2021/08/12 11:10:09;;;;;;;7.50;4.40;;;;;;;;;;5105902;28;20085;-76
2021/08/12 11:12:53;;;;;;;8.05;4.40;;;;;;;;;;5105071;28;20040;-79
2021/08/12 11:15:41;;;;;;;6.55;4.25;;;;;;;;;;5103046;28;20047;-81
2021/08/12 11:18:11;;;;;;;5.20;4.13;;;;;;;;;;5106279;28;20044;-81
2021/08/12 11:20:39;;;;;;;4.70;3.65;;;;;;;;;;5092094;28;20036;-79
2021/08/12 11:23:20;;;;;;;7.07;4.22;;;;;;;;;;5098068;28;20128;-81
2021/08/12 11:25:59;;;;;;;5.18;4.07;;;;;;;;;;5088274;28;20040;-81
2021/08/12 11:28:40;;;;;;;7.35;4.05;;;;;;;;;;5098893;28;20059;-81
2021/08/12 11:31:09;;;;;;;5.90;3.63;;;;;;;;;;5104204;28;20127;-84
2021/08/12 11:33:57;;;;;;;6.82;3.97;;;;;;;;;;5098594;28;20047;-78
2021/08/12 11:36:25;;;;;;;5.18;3.47;;;;;;;;;;5101459;28;20048;-78
2021/08/12 11:38:54;;;;;;;4.68;3.25;;;;;;;;;;5107351;28;20035;-79
2021/08/12 11:41:21;;;;;;;6.15;3.38;;;;;;;;;;5103138;28;20487;-78
2021/08/12 11:43:48;;;;;;;5.57;3.40;;;;;;;;;;5103546;28;20035;-78
2021/08/12 11:46:14;;;;;;;4.13;3.28;;;;;;;;;;5089414;28;20040;-80
2021/08/12 11:48:41;;;;;;;6.43;3.85;;;;;;;;;;5084530;28;20324;-80
2021/08/12 11:51:07;;;;;;;4.70;3.70;;;;;;;;;;5086912;28;20095;-79
2021/08/12 11:53:40;;;;;;;6.30;4.20;;;;;;;;;;5085525;28;20044;-81
2021/08/12 11:56:08;;;;;;;4.82;4.00;;;;;;;;;;5089654;28;20060;-80
2021/08/12 11:58:35;;;;;;;5.40;4.03;;;;;;;;;;5077067;28;20123;-79
2021/08/12 12:01:14;;;;;;;7.38;4.40;;;;;;;;;;5086031;28;20032;-78
2021/08/12 12:03:40;;;;;;;6.68;4.00;;;;;;;;;;5086986;28;20063;-79
2021/08/12 12:06:06;;;;;;;7.07;4.57;;;;;;;;;;5085712;28;20047;-77
2021/08/12 12:08:33;;;;;;;6.40;4.60;;;;;;;;;;5086439;28;20557;-79
2021/08/12 12:11:12;;;;;;;6.85;4.47;;;;;;;;;;5081236;28;20032;-78
2021/08/12 12:13:38;;;;;;;6.43;5.32;;;;;;;;;;5082240;28;20467;-79
2021/08/12 12:16:09;;;;;;;5.25;4.75;;;;;;;;;;5080454;28;20032;-78
2021/08/12 12:18:44;;;;;;;8.65;5.68;;;;;;;;;;5093216;28;20040;-80
2021/08/12 12:21:11;;;;;;;8.25;5.20;;;;;;;;;;5084582;28;20050;-79
2021/08/12 12:23:38;;;;;;;5.85;5.22;;;;;;;;;;5080963;28;20040;-82
2021/08/12 12:26:05;;;;;;;8.77;5.47;;;;;;;;;;5085219;28;20085;-79
2021/08/12 12:28:32;;;;;;;7.53;6.05;;;;;;;;;;5081758;28;20659;-81
2021/08/12 12:31:00;;;;;;;8.02;5.78;;;;;;;;;;5083901;28;20423;-80
2021/08/12 12:33:27;;;;;;;7.85;6.00;;;;;;;;;;5094854;28;20052;-81
2021/08/12 12:35:54;;;;;;;10.45;7.50;;;;;;;;;;5079843;28;20043;-82
2021/08/12 12:38:24;;;;;;;10.20;6.00;;;;;;;;;;5079484;28;20127;-80
2021/08/12 12:40:52;;;;;;;8.45;5.75;;;;;;;;;;5081904;28;20036;-84
2021/08/12 12:43:18;;;;;;;8.60;5.10;;;;;;;;;;5082271;28;20036;-80
2021/08/12 12:45:54;;;;;;;8.23;5.97;;;;;;;;;;5080122;28;20051;-74
2021/08/12 12:48:32;;;;;;;8.63;5.20;;;;;;;;;;5080410;28;20048;-76
2021/08/12 12:50:59;;;;;;;8.85;5.50;;;;;;;;;;5081790;28;20040;-81
2021/08/12 12:53:32;;;;;;;9.07;5.28;;;;;;;;;;5090366;28;20088;-79
2021/08/12 12:55:58;;;;;;;9.40;5.30;;;;;;;;;;5090403;28;20044;-81
2021/08/12 12:58:33;;;;;;;8.77;4.95;;;;;;;;;;5089797;28;20113;-80
2021/08/12 13:01:09;;;;;;;6.05;4.63;;;;;;;;;;5085325;28;20579;-81
2021/08/12 13:03:36;;;;;;;6.03;4.60;;;;;;;;;;5079975;28;20048;-77
2021/08/12 13:06:03;;;;;;;5.63;4.93;;;;;;;;;;5074151;28;20101;-80
2021/08/12 13:08:45;;;;;;;6.25;5.03;;;;;;;;;;5077290;28;20036;-75
2021/08/12 13:11:12;;;;;;;7.53;4.72;;;;;;;;;;5080878;28;20407;-78
2021/08/12 13:13:38;;;;;;;6.03;4.47;;;;;;;;;;5080950;28;20372;-76
2021/08/12 13:16:06;;;;;;;6.50;3.92;;;;;;;;;;5080945;28;20391;-80
2021/08/12 13:18:53;;;;;;;4.97;4.22;;;;;;;;;;5081418;28;20051;-79
2021/08/12 13:21:25;;;;;;;8.73;4.80;;;;;;;;;;5079479;28;20046;-79
2021/08/12 13:23:52;;;;;;;6.03;4.55;;;;;;;;;;5078934;28;20145;-80
2021/08/12 13:26:39;;;;;;;7.03;4.32;;;;;;;;;;5081846;28;20048;-79
2021/08/12 13:29:06;;;;;;;8.52;4.65;;;;;;;;;;5079655;28;20367;-79
2021/08/12 13:31:48;;;;;;;6.55;4.68;;;;;;;;;;5082619;28;20068;-79
2021/08/12 13:34:15;;;;;;;5.65;4.15;;;;;;;;;;5078092;28;20068;-79
2021/08/12 13:36:42;;;;;;;8.63;4.00;;;;;;;;;;5079146;28;20081;-77
2021/08/12 13:39:09;;;;;;;5.68;3.58;;;;;;;;;;5079637;28;20391;-79
2021/08/12 13:41:45;;;;;;;5.07;3.10;;;;;;;;;;5078924;28;20040;-74
2021/08/12 13:44:12;;;;;;;5.00;2.95;;;;;;;;;;5078289;28;20087;-78
2021/08/12 13:46:38;;;;;;;4.15;2.85;;;;;;;;;;5082217;28;20047;-78
2021/08/12 13:49:04;;;;;;;5.75;3.35;;;;;;;;;;5079468;28;20051;-78
2021/08/12 13:51:30;;;;;;;6.55;3.60;;;;;;;;;;5080826;28;20079;-74
2021/08/12 13:53:56;;;;;;;8.40;3.83;;;;;;;;;;5081258;28;20036;-78
2021/08/12 13:56:23;;;;;;;11.38;3.47;;;;;;;;;;5084853;28;20502;-75
2021/08/12 13:58:49;;;;;;;5.20;3.35;;;;;;;;;;5078205;28;20067;-78
2021/08/12 14:01:15;;;;;;;4.57;3.08;;;;;;;;;;5078870;28;20106;-78
2021/08/12 14:03:41;;;;;;;7.03;3.35;;;;;;;;;;5079728;28;20478;-77
2021/08/12 14:06:08;;;;;;;4.68;3.20;;;;;;;;;;5078353;28;20825;-78
2021/08/12 14:08:34;;;;;;;3.90;3.00;;;;;;;;;;5078824;28;20043;-77
2021/08/12 14:11:00;;;;;;;5.53;3.03;;;;;;;;;;5076245;28;20471;-78
2021/08/12 14:13:27;;;;;;;6.13;2.90;;;;;;;;;;5078218;28;20039;-78
2021/08/12 14:15:53;;;;;;;4.75;2.80;;;;;;;;;;5079896;28;20047;-78
2021/08/12 14:18:19;;;;;;;6.55;3.03;;;;;;;;;;5084628;28;20047;-80
2021/08/12 14:20:45;;;;;;;4.82;3.00;;;;;;;;;;5088122;28;22067;-80
2021/08/12 14:23:11;;;;;;;5.80;3.00;;;;;;;;;;5081055;28;20543;-78
2021/08/12 14:25:37;;;;;;;4.13;2.75;;;;;;;;;;5081226;28;20039;-78
2021/08/12 14:28:04;;;;;;;4.70;2.90;;;;;;;;;;5079635;28;20043;-78
2021/08/12 14:30:30;;;;;;;6.20;2.75;;;;;;;;;;5083167;28;20036;-79
2021/08/12 14:32:56;;;;;;;4.13;2.58;;;;;;;;;;5085275;28;20411;-79
2021/08/12 14:35:22;;;;;;;4.13;2.45;;;;;;;;;;5082922;28;20040;-80
2021/08/12 14:37:48;;;;;;;3.67;2.45;;;;;;;;;;5085179;28;20051;-75
2021/08/12 14:40:15;;;;;;;9.35;2.22;;;;;;;;;;5086110;28;20063;-79
2021/08/12 14:42:42;;;;;;;3.15;2.35;;;;;;;;;;5087017;28;20044;-80
2021/08/12 14:45:08;;;;;;;4.63;2.00;;;;;;;;;;5088051;28;20052;-78
2021/08/12 14:47:34;;;;;;;3.67;2.10;;;;;;;;;;5090772;28;20123;-78
2021/08/12 14:50:01;;;;;;;8.00;2.83;;;;;;;;;;5093706;28;20039;-78